Time;durP1;ratioP1;P1;durP2;ratioP2;P2;SDS_P1;SDS_P2;PMS_P1;PMS_P2;Temp;Humidity;BMP_temperature;BMP_pressure;BME280_temperature;BME280_humidity;BME280_pressure;Samples;Min_cycle;Max_cycle;Signal;HPM_P1;HPM_P2
2021/08/04 00:02:09;;;;;;;8.93;1.92;;;;;;;30.26;53.83;100884.94;5112699;27;65709;-36
2021/08/04 00:04:40;;;;;;;21.35;2.13;;;;;;;30.31;54.06;100884.25;5100213;27;70960;-37
2021/08/04 00:07:10;;;;;;;14.23;2.20;;;;;;;30.36;54.30;100885.25;5109075;27;65379;-38
2021/08/04 00:09:45;;;;;;;11.73;2.10;;;;;;;30.47;54.45;100886.47;5115224;27;69935;-41
2021/08/04 00:12:16;;;;;;;7.88;2.20;;;;;;;30.60;56.69;100905.34;5112661;27;66885;-42
2021/08/04 00:14:46;;;;;;;7.25;2.78;;;;;;;30.67;57.04;100913.41;5109777;27;69650;-44
2021/08/04 00:17:17;;;;;;;20.65;2.88;;;;;;;30.72;57.73;100898.16;5098022;27;66588;-47
2021/08/04 00:19:47;;;;;;;15.43;3.33;;;;;;;30.85;57.94;100918.13;5108450;27;70090;-41
2021/08/04 00:22:17;;;;;;;10.02;3.05;;;;;;;30.86;58.92;100920.59;5109755;27;65961;-40
2021/08/04 00:24:48;;;;;;;10.48;3.40;;;;;;;30.97;58.53;100924.47;5117871;27;70278;-40
2021/08/04 00:27:18;;;;;;;8.18;3.33;;;;;;;31.02;59.21;100927.38;5112486;27;65329;-41
2021/08/04 00:29:48;;;;;;;13.38;4.22;;;;;;;30.99;58.93;100911.56;5105295;27;70092;-42
2021/08/04 00:32:19;;;;;;;8.75;3.92;;;;;;;31.10;59.83;100921.66;5115849;27;66360;-42
2021/08/04 00:34:50;;;;;;;8.32;4.68;;;;;;;31.13;59.38;100923.13;5131441;27;69989;-41
2021/08/04 00:37:21;;;;;;;9.70;3.72;;;;;;;31.20;59.67;100928.47;5106781;27;66096;-41
2021/08/04 00:39:51;;;;;;;8.10;3.45;;;;;;;31.13;60.43;100906.84;5110337;27;70059;-40
2021/08/04 00:45:46;;;;;;;13.05;4.30;;;;;;;31.15;61.24;100905.59;5086723;27;69907;-36
2021/08/04 00:48:19;;;;;;;9.95;3.75;;;;;;;31.15;62.85;100897.47;5094369;27;65081;-39
2021/08/04 00:50:51;;;;;;;10.40;4.30;;;;;;;31.19;62.11;100915.97;5113482;27;69720;-37
2021/08/04 00:53:28;;;;;;;9.85;4.13;;;;;;;31.22;62.56;100920.94;5110957;27;65984;-37
2021/08/04 00:56:13;;;;;;;9.23;4.18;;;;;;;31.19;62.22;100910.56;5100534;27;70227;-38
2021/08/04 00:58:44;;;;;;;12.90;4.23;;;;;;;31.20;62.69;100907.59;5091759;27;66131;-36
2021/08/04 01:01:26;;;;;;;5.63;3.65;;;;;;;31.12;63.41;100895.19;5111015;27;70815;-37
2021/08/04 01:04:12;;;;;;;5.38;3.60;;;;;;;31.16;62.67;100901.81;5112768;27;65258;-36
2021/08/04 01:07:05;;;;;;;9.00;3.90;;;;;;;31.23;62.35;100896.34;5108887;27;69880;-41
2021/08/04 01:10:02;;;;;;;4.85;3.15;;;;;;;31.11;63.12;100893.50;5106530;27;66307;-36
2021/08/04 01:13:11;;;;;;;6.05;3.78;;;;;;;31.12;63.58;100884.34;5108046;27;70322;-37
2021/08/04 01:15:57;;;;;;;7.63;3.65;;;;;;;31.21;63.37;100889.50;5069414;27;65164;-38
2021/08/04 01:19:01;;;;;;;5.68;3.03;;;;;;;31.16;63.70;100885.56;5098592;27;69886;-37
2021/08/04 01:21:49;;;;;;;9.07;3.95;;;;;;;31.27;62.75;100891.31;5106552;27;66575;-37
2021/08/04 01:24:32;;;;;;;10.10;3.63;;;;;;;31.29;63.56;100894.63;5098505;27;70885;-37
2021/08/04 01:27:14;;;;;;;6.10;3.67;;;;;;;31.29;62.97;100889.22;5114200;27;66499;-37
2021/08/04 01:30:19;;;;;;;7.75;3.95;;;;;;;31.28;63.67;100884.81;5081809;27;70687;-37
2021/08/04 01:32:50;;;;;;;11.90;3.78;;;;;;;31.34;63.31;100879.34;5110333;27;65481;-37
2021/08/04 01:35:25;;;;;;;4.47;3.42;;;;;;;31.36;63.49;100881.84;5090971;27;70556;-38
2021/08/04 01:37:58;;;;;;;6.68;3.38;;;;;;;31.36;63.33;100882.69;5114118;27;66256;-39
2021/08/04 01:40:31;;;;;;;9.68;3.55;;;;;;;31.41;64.13;100881.19;5124293;27;70413;-38
2021/08/04 01:43:03;;;;;;;6.97;3.75;;;;;;;31.41;63.94;100876.59;5132038;27;66933;-37
2021/08/04 01:45:43;;;;;;;11.98;4.15;;;;;;;31.45;64.15;100877.78;5108320;27;69841;-38
2021/08/04 01:48:17;;;;;;;6.53;3.95;;;;;;;31.43;63.54;100877.22;5117344;27;66048;-38
2021/08/04 01:50:53;;;;;;;9.15;3.85;;;;;;;31.48;64.13;100874.66;5096467;27;70087;-42
2021/08/04 01:53:27;;;;;;;13.75;4.22;;;;;;;31.50;64.26;100874.41;5107489;27;66305;-42
2021/08/04 01:56:01;;;;;;;11.88;3.90;;;;;;;31.48;64.00;100866.53;5088467;27;70026;-39
2021/08/04 01:58:33;;;;;;;9.15;4.10;;;;;;;31.56;64.37;100868.91;5111636;27;65750;-39
2021/08/04 02:01:11;;;;;;;8.07;5.80;;;;;;;31.57;64.06;100861.63;5113530;27;69228;-40
2021/08/04 02:03:42;;;;;;;12.50;6.03;;;;;;;31.60;64.09;100859.28;5116366;27;66311;-36
2021/08/04 02:06:40;;;;;;;6.35;5.68;;;;;;;31.58;64.59;100861.41;5116294;27;70082;-38
2021/08/04 02:09:13;;;;;;;9.48;6.60;;;;;;;31.67;63.94;100871.94;5116569;27;65581;-38
2021/08/04 02:12:03;;;;;;;9.88;5.70;;;;;;;31.68;64.24;100881.72;5115307;27;69210;-39
2021/08/04 02:14:57;;;;;;;13.35;4.95;;;;;;;31.62;64.51;100875.31;5111337;27;66411;-39
2021/08/04 02:17:37;;;;;;;12.63;4.82;;;;;;;31.73;64.26;100879.16;5111746;27;69606;-38
2021/08/04 02:20:22;;;;;;;10.40;4.22;;;;;;;31.50;63.08;100826.44;5109113;27;66801;-39
2021/08/04 02:22:58;;;;;;;10.15;4.70;;;;;;;31.53;63.68;100831.41;5113219;27;70998;-37
2021/08/04 02:25:38;;;;;;;7.93;3.97;;;;;;;31.77;64.16;100875.78;5114699;27;66323;-37
2021/08/04 02:28:16;;;;;;;6.53;3.97;;;;;;;31.81;63.70;100878.88;5111738;27;70131;-32
2021/08/04 02:30:49;;;;;;;5.97;3.38;;;;;;;31.79;63.11;100872.88;5108523;27;65223;-42
2021/08/04 02:33:24;;;;;;;10.88;3.22;;;;;;;31.81;63.28;100881.56;5110886;27;70218;-39
2021/08/04 02:35:56;;;;;;;11.80;3.88;;;;;;;31.81;62.88;100876.16;5102385;27;66080;-41
2021/08/04 02:38:30;;;;;;;5.10;3.00;;;;;;;31.82;62.43;100872.41;5098074;27;70299;-41
2021/08/04 02:41:02;;;;;;;9.48;2.97;;;;;;;31.82;62.15;100875.13;5095971;27;66751;-41
2021/08/04 02:43:35;;;;;;;7.72;3.13;;;;;;;31.57;62.31;100832.63;5094673;27;69809;-41
2021/08/04 02:46:08;;;;;;;10.10;3.17;;;;;;;31.81;61.44;100870.72;5107041;27;66209;-44
2021/08/04 02:48:38;;;;;;;6.20;2.90;;;;;;;31.79;60.83;100875.56;5112531;27;69961;-39
2021/08/04 02:51:12;;;;;;;8.43;3.33;;;;;;;31.81;60.92;100865.31;5106654;27;65342;-42
2021/08/04 02:53:52;;;;;;;13.85;2.90;;;;;;;31.84;61.06;100854.00;5112756;27;70654;-40
2021/08/04 02:56:25;;;;;;;8.80;2.75;;;;;;;31.78;59.68;100844.06;5093725;27;65801;-40
2021/08/04 02:58:57;;;;;;;9.40;2.67;;;;;;;31.71;58.60;100851.47;5115509;27;70454;-40
2021/08/04 03:01:29;;;;;;;8.05;2.92;;;;;;;31.57;56.83;100835.34;5111879;27;65262;-38
2021/08/04 03:04:02;;;;;;;8.65;2.92;;;;;;;31.50;56.13;100839.19;5092224;27;70189;-41
2021/08/04 03:06:35;;;;;;;5.53;2.53;;;;;;;31.37;55.01;100823.88;5111613;27;65694;-41
2021/08/04 03:09:09;;;;;;;4.30;2.90;;;;;;;31.30;53.66;100809.56;5076995;27;70605;-44
2021/08/04 03:11:44;;;;;;;6.80;2.47;;;;;;;31.23;52.94;100825.03;5110641;27;66019;-41
2021/08/04 03:14:15;;;;;;;3.42;1.92;;;;;;;30.99;52.41;100792.34;5095184;27;70841;-39
2021/08/04 03:16:50;;;;;;;4.05;2.20;;;;;;;31.07;52.45;100816.44;5104940;27;66621;-38
2021/08/04 03:19:21;;;;;;;7.28;2.70;;;;;;;31.06;52.07;100819.38;5110009;27;70106;-32
2021/08/04 03:21:51;;;;;;;6.00;3.28;;;;;;;30.98;51.45;100806.97;5113479;27;65760;-32
2021/08/04 03:24:22;;;;;;;8.30;2.53;;;;;;;31.02;50.92;100823.59;5111622;27;69252;-32
2021/08/04 03:26:55;;;;;;;10.90;2.88;;;;;;;30.95;50.67;100810.09;5108343;27;66336;-35
2021/08/04 03:29:32;;;;;;;6.78;2.80;;;;;;;30.88;50.21;100807.47;5108947;27;69993;-33
2021/08/04 03:32:07;;;;;;;6.10;2.67;;;;;;;30.88;48.28;100796.63;5113558;27;66506;-32
2021/08/04 03:34:43;;;;;;;3.80;2.42;;;;;;;30.86;48.29;100792.47;5109826;27;69641;-33
2021/08/04 03:37:17;;;;;;;6.25;2.83;;;;;;;30.83;48.11;100787.50;5102077;27;66410;-33
2021/08/04 03:39:48;;;;;;;3.20;2.38;;;;;;;30.78;46.99;100790.00;5107320;27;69928;-34
2021/08/04 03:42:20;;;;;;;4.70;2.40;;;;;;;30.77;47.03;100788.38;5107192;27;66381;-35
2021/08/04 03:44:52;;;;;;;5.07;2.90;;;;;;;30.75;47.94;100785.88;5109082;27;69681;-37
2021/08/04 03:47:25;;;;;;;4.38;2.40;;;;;;;30.86;48.95;100787.06;5100418;27;67540;-33
2021/08/04 03:49:56;;;;;;;4.95;2.40;;;;;;;30.98;48.78;100784.44;5110747;27;69520;-33
2021/08/04 03:52:27;;;;;;;;;;;;;;;30.87;49.46;100783.28;5111554;27;66342;-32
2021/08/04 03:55:02;;;;;;;3.20;2.22;;;;;;;31.16;50.07;100771.75;5108066;27;69303;-31
2021/08/04 03:57:33;;;;;;;5.45;2.20;;;;;;;31.32;49.89;100774.94;5110891;27;67838;-32
2021/08/04 04:00:08;;;;;;;6.07;2.88;;;;;;;31.51;52.49;100773.91;5071907;27;69257;-35
2021/08/04 04:02:41;;;;;;;8.50;4.35;;;;;;;31.58;54.61;100762.97;5107242;27;67065;-33
2021/08/04 04:05:13;;;;;;;16.13;4.63;;;;;;;31.76;56.33;100764.81;5110579;27;69941;-33
2021/08/04 04:07:43;;;;;;;8.88;4.45;;;;;;;31.81;57.62;100773.09;5109854;27;65653;-33
2021/08/04 04:10:14;;;;;;;8.50;4.28;;;;;;;31.93;57.26;100757.72;5107226;27;69981;-32
2021/08/04 04:12:49;;;;;;;9.57;4.50;;;;;;;32.05;57.99;100769.44;5099134;27;66437;-35
2021/08/04 04:15:23;;;;;;;10.50;4.43;;;;;;;32.12;58.19;100763.91;5097301;27;70237;-33
2021/08/04 04:17:54;;;;;;;10.43;4.80;;;;;;;32.22;58.32;100775.03;5106965;27;65280;-34
2021/08/04 04:20:26;;;;;;;7.93;4.05;;;;;;;32.30;58.21;100765.72;5099932;27;70001;-34
2021/08/04 04:22:58;;;;;;;11.07;3.92;;;;;;;32.37;58.48;100777.28;5077812;27;65092;-32
2021/08/04 04:25:29;;;;;;;6.63;3.78;;;;;;;32.43;57.89;100770.09;5105992;27;69658;-33
2021/08/04 04:28:00;;;;;;;21.92;4.82;;;;;;;32.50;57.71;100773.59;5097799;27;65231;-31
2021/08/04 04:30:30;;;;;;;5.95;3.42;;;;;;;32.55;57.51;100770.19;5112836;27;69576;-32
2021/08/04 04:33:00;;;;;;;7.53;3.83;;;;;;;32.60;57.24;100765.69;5108771;27;65682;-33
2021/08/04 04:35:31;;;;;;;5.10;3.45;;;;;;;32.68;57.28;100767.22;5108307;27;70457;-32
2021/08/04 04:38:01;;;;;;;6.90;3.33;;;;;;;32.70;57.30;100759.66;5098766;27;66179;-32
2021/08/04 04:40:31;;;;;;;14.05;4.50;;;;;;;32.71;56.86;100745.88;5091567;27;70436;-33
2021/08/04 04:43:06;;;;;;;8.82;4.53;;;;;;;32.79;56.78;100747.41;5084276;27;67943;-32
2021/08/04 04:45:38;;;;;;;9.05;4.30;;;;;;;32.82;56.76;100757.78;5092998;27;69309;-32
2021/08/04 04:48:11;;;;;;;6.40;4.10;;;;;;;32.87;56.81;100736.16;5094909;27;66415;-33
2021/08/04 04:50:41;;;;;;;11.20;3.78;;;;;;;32.89;56.78;100738.66;5106796;27;70583;-32
2021/08/04 04:53:12;;;;;;;7.00;3.85;;;;;;;32.94;56.76;100734.16;5112049;27;66135;-33
2021/08/04 04:55:42;;;;;;;10.85;3.95;;;;;;;32.99;56.46;100735.31;5109423;27;70079;-32
2021/08/04 04:58:12;;;;;;;7.03;3.53;;;;;;;32.90;56.58;100708.53;5098391;27;65846;-33
2021/08/04 05:00:44;;;;;;;7.60;3.83;;;;;;;33.03;56.88;100721.06;5100837;27;70891;-33
2021/08/04 05:03:34;;;;;;;11.82;3.75;;;;;;;33.03;57.10;100709.38;5105161;27;65015;-33
2021/08/04 05:06:05;;;;;;;8.15;3.38;;;;;;;33.05;56.92;100702.63;5103031;27;69882;-33
2021/08/04 05:08:36;;;;;;;7.93;3.65;;;;;;;33.11;56.57;100709.00;5092972;27;65452;-34
2021/08/04 05:11:07;;;;;;;6.63;3.17;;;;;;;33.13;56.76;100706.88;5114358;27;69919;-34
2021/08/04 05:13:38;;;;;;;10.07;3.90;;;;;;;33.17;56.71;100691.72;5106639;27;65464;-31
2021/08/04 05:16:08;;;;;;;6.82;3.97;;;;;;;33.18;56.63;100690.66;5109642;27;69248;-35
2021/08/04 05:18:46;;;;;;;6.28;3.80;;;;;;;33.22;56.38;100694.53;5095058;27;65489;-34
2021/08/04 05:21:22;;;;;;;6.47;4.00;;;;;;;33.24;56.51;100692.41;5106385;27;69388;-34
2021/08/04 05:23:52;;;;;;;12.23;3.85;;;;;;;33.26;56.80;100695.69;5092904;27;66174;-35
2021/08/04 05:26:26;;;;;;;4.68;3.17;;;;;;;33.28;56.39;100690.03;5106513;27;70489;-34
2021/08/04 05:28:57;;;;;;;7.95;3.45;;;;;;;33.25;54.83;100685.09;5114416;27;66440;-34
2021/08/04 05:31:28;;;;;;;7.38;3.47;;;;;;;33.11;53.87;100679.09;5114853;27;70745;-32
2021/08/04 05:34:00;;;;;;;15.13;3.58;;;;;;;33.03;52.54;100693.06;5115211;27;65680;-33
2021/08/04 05:36:32;;;;;;;10.52;3.00;;;;;;;32.86;49.85;100682.91;5111634;27;69979;-33
2021/08/04 05:39:03;;;;;;;10.65;3.67;;;;;;;32.71;50.27;100686.13;5108552;27;66150;-32
2021/08/04 05:41:33;;;;;;;8.88;3.22;;;;;;;32.59;50.56;100676.31;5115654;27;70014;-31
2021/08/04 05:44:04;;;;;;;7.40;3.00;;;;;;;32.48;49.16;100669.81;5118013;27;65587;-33
2021/08/04 05:46:37;;;;;;;8.45;3.20;;;;;;;32.40;49.53;100657.41;5116503;27;71022;-34
2021/08/04 05:49:10;;;;;;;8.57;3.20;;;;;;;32.26;48.17;100662.25;5101500;27;66307;-33
2021/08/04 05:51:47;;;;;;;6.82;3.22;;;;;;;32.18;48.72;100653.59;5108720;27;70517;-31
2021/08/04 05:54:19;;;;;;;6.57;2.75;;;;;;;32.09;47.81;100657.72;5107019;27;66379;-32
2021/08/04 05:56:52;;;;;;;7.40;3.78;;;;;;;32.02;47.51;100645.09;5115876;27;69656;-37
2021/08/04 05:59:24;;;;;;;18.52;2.80;;;;;;;31.97;47.01;100630.59;5116382;27;66352;-36
2021/08/04 06:01:55;;;;;;;3.80;2.40;;;;;;;31.90;46.82;100625.25;5079010;27;70153;-39
2021/08/04 06:04:27;;;;;;;4.03;3.00;;;;;;;31.84;46.43;100620.72;5102676;27;66106;-33
2021/08/04 06:06:58;;;;;;;7.78;2.45;;;;;;;31.80;46.00;100622.28;5113607;27;69259;-38
2021/08/04 06:09:31;;;;;;;5.82;2.83;;;;;;;31.77;45.41;100630.88;5082234;27;66186;-33
2021/08/04 06:12:01;;;;;;;4.50;2.40;;;;;;;31.75;44.61;100627.56;5113092;27;70487;-32
2021/08/04 06:14:32;;;;;;;4.50;2.63;;;;;;;31.69;44.56;100628.50;5113583;27;67291;-32
2021/08/04 06:17:04;;;;;;;9.77;2.75;;;;;;;31.67;44.79;100625.19;5109848;27;70327;-33
2021/08/04 06:19:36;;;;;;;5.65;2.33;;;;;;;31.63;44.99;100632.13;5111209;27;66445;-32
2021/08/04 06:22:07;;;;;;;6.25;3.15;;;;;;;31.59;44.37;100627.19;5106796;27;69196;-34
2021/08/04 06:24:37;;;;;;;6.30;2.85;;;;;;;31.57;44.01;100621.16;5112440;27;66151;-36
2021/08/04 06:27:08;;;;;;;3.58;2.70;;;;;;;31.52;44.11;100618.31;5105364;27;69324;-31
2021/08/04 06:29:39;;;;;;;4.55;2.65;;;;;;;31.52;44.02;100622.91;5115998;27;66126;-32
2021/08/04 06:32:10;;;;;;;2.87;2.67;;;;;;;31.48;43.71;100603.56;5116345;27;70234;-31
2021/08/04 06:34:41;;;;;;;3.75;2.78;;;;;;;31.46;43.45;100615.69;5110106;27;65382;-35
2021/08/04 06:37:12;;;;;;;4.75;2.97;;;;;;;31.48;43.04;100622.56;5108393;27;70322;-31
2021/08/04 06:39:42;;;;;;;3.22;2.92;;;;;;;31.46;43.58;100608.38;5107606;27;65707;-33
2021/08/04 06:42:19;;;;;;;3.47;3.10;;;;;;;31.45;43.87;100592.34;5109661;27;70791;-35
2021/08/04 06:44:49;;;;;;;4.37;2.67;;;;;;;31.40;43.62;100587.63;5094347;27;64817;-37
2021/08/04 06:47:20;;;;;;;3.03;2.83;;;;;;;31.47;43.23;100599.19;5116172;27;69252;-32
2021/08/04 06:49:51;;;;;;;2.88;2.67;;;;;;;31.41;43.27;100589.28;5088601;27;67113;-34
2021/08/04 06:52:22;;;;;;;4.13;3.20;;;;;;;31.39;42.53;100581.38;5115686;27;69220;-35
2021/08/04 06:54:52;;;;;;;5.28;3.17;;;;;;;31.43;42.23;100576.31;5113543;27;66200;-33
2021/08/04 06:57:23;;;;;;;3.17;2.88;;;;;;;31.46;43.15;100592.13;5117295;27;69259;-31
2021/08/04 06:59:54;;;;;;;3.80;3.40;;;;;;;31.46;42.50;100578.56;5116123;27;66276;-32
2021/08/04 07:02:25;;;;;;;3.55;3.25;;;;;;;31.43;42.20;100570.91;5114429;27;69444;-33
2021/08/04 07:04:56;;;;;;;3.47;3.17;;;;;;;31.42;42.43;100563.00;5114854;27;66298;-33
2021/08/04 07:07:27;;;;;;;3.60;3.30;;;;;;;31.49;42.33;100569.97;5110971;27;70055;-35
2021/08/04 07:10:08;;;;;;;7.13;3.60;;;;;;;31.52;41.78;100572.22;5096832;27;66028;-35
2021/08/04 07:12:44;;;;;;;3.53;3.30;;;;;;;31.48;42.21;100562.06;5112877;27;70447;-33
2021/08/04 07:15:16;;;;;;;4.05;3.38;;;;;;;31.43;42.25;100554.66;5107864;27;66421;-33
2021/08/04 07:17:51;;;;;;;7.82;4.18;;;;;;;31.45;42.14;100557.94;5130441;27;70192;-32
2021/08/04 07:20:22;;;;;;;;;;;;;;;31.21;44.69;100562.44;5113313;27;66076;-31
2021/08/04 07:22:52;;;;;;;7.75;4.47;;;;;;;31.51;44.75;100553.47;5112096;27;70314;-35
2021/08/04 07:25:26;;;;;;;7.60;4.22;;;;;;;31.51;44.55;100551.59;5063541;27;65260;-32
2021/08/04 07:27:56;;;;;;;4.00;3.70;;;;;;;31.51;44.05;100535.34;5107945;27;69431;-34
2021/08/04 07:30:27;;;;;;;5.68;3.83;;;;;;;31.53;43.04;100535.91;5109587;27;65796;-33
2021/08/04 07:32:58;;;;;;;4.55;3.70;;;;;;;31.54;42.64;100545.72;5117243;27;68942;-32
2021/08/04 07:35:29;;;;;;;4.00;3.70;;;;;;;31.53;42.46;100538.63;5092669;27;67232;-32
2021/08/04 07:38:00;;;;;;;4.30;3.90;;;;;;;31.57;42.45;100533.56;5093273;27;70270;-32
2021/08/04 07:40:30;;;;;;;8.40;4.18;;;;;;;31.51;41.98;100524.50;5105387;27;66248;-32
2021/08/04 07:43:01;;;;;;;4.50;4.20;;;;;;;31.55;42.32;100525.66;5110271;27;69271;-34
2021/08/04 07:45:32;;;;;;;5.68;4.28;;;;;;;31.55;42.35;100520.25;5112828;27;65866;-33
2021/08/04 07:48:02;;;;;;;5.65;4.75;;;;;;;31.57;42.18;100520.84;5094894;27;69987;-33
2021/08/04 07:50:33;;;;;;;10.73;5.38;;;;;;;31.51;44.06;100502.81;5101233;27;66063;-32
2021/08/04 07:53:04;;;;;;;16.05;5.80;;;;;;;31.66;46.52;100523.22;5114413;27;70138;-36
2021/08/04 07:55:35;;;;;;;14.35;6.00;;;;;;;31.67;47.10;100522.13;5110362;27;66787;-36
2021/08/04 07:58:19;;;;;;;8.93;5.82;;;;;;;31.73;46.29;100513.06;5101972;27;70385;-31
2021/08/04 08:00:50;;;;;;;9.88;6.03;;;;;;;31.72;45.31;100525.78;5107425;27;64987;-33
2021/08/04 08:03:24;;;;;;;6.38;5.60;;;;;;;31.72;44.59;100514.13;5107392;27;70902;-34
2021/08/04 08:05:59;;;;;;;10.27;6.00;;;;;;;31.69;46.16;100498.34;5096224;27;66044;-38
2021/08/04 08:08:36;;;;;;;10.63;5.97;;;;;;;31.73;47.58;100504.91;5068861;27;70417;-34
2021/08/04 08:11:09;;;;;;;9.18;5.80;;;;;;;31.78;48.48;100502.34;5109282;27;67249;-33
2021/08/04 08:13:40;;;;;;;17.52;6.10;;;;;;;31.90;49.23;100521.31;5112711;27;69496;-34
2021/08/04 08:16:15;;;;;;;15.52;6.13;;;;;;;31.81;50.00;100486.41;5110988;27;66297;-33
2021/08/04 08:18:48;;;;;;;17.67;6.10;;;;;;;32.10;50.10;100521.84;5116129;27;43849;-32
2021/08/04 08:21:23;;;;;;;15.50;5.80;;;;;;;32.21;50.40;100529.13;5109303;27;65406;-33
2021/08/04 08:23:53;;;;;;;11.40;6.15;;;;;;;32.25;51.15;100524.03;5079136;27;70318;-36
2021/08/04 08:26:38;;;;;;;12.65;5.38;;;;;;;32.40;51.02;100526.25;5105305;27;67545;-33
2021/08/04 08:29:09;;;;;;;15.45;5.65;;;;;;;32.46;51.63;100522.63;5089079;27;71019;-33
2021/08/04 08:31:41;;;;;;;15.05;6.13;;;;;;;32.56;51.67;100519.28;5109402;27;66075;-33
2021/08/04 08:34:12;;;;;;;17.45;5.65;;;;;;;32.60;51.73;100512.34;5109508;27;69581;-32
2021/08/04 08:36:43;;;;;;;12.87;5.40;;;;;;;32.66;52.44;100503.22;5105193;27;66504;-33
2021/08/04 08:39:15;;;;;;;17.60;5.13;;;;;;;32.72;52.63;100496.81;5108917;27;70084;-32
2021/08/04 08:41:47;;;;;;;15.30;5.35;;;;;;;32.77;52.84;100502.34;5111372;27;66044;-31
2021/08/04 08:44:31;;;;;;;8.23;4.97;;;;;;;32.80;52.81;100499.13;5108999;27;68615;-33
2021/08/04 08:47:07;;;;;;;6.80;5.32;;;;;;;32.89;53.46;100486.81;5107630;27;66189;-33
2021/08/04 08:49:41;;;;;;;9.48;5.82;;;;;;;32.93;53.49;100482.56;5111910;27;70316;-33
2021/08/04 08:52:12;;;;;;;7.65;5.18;;;;;;;32.98;53.53;100489.13;5111706;27;66877;-31
2021/08/04 08:54:43;;;;;;;18.55;4.75;;;;;;;32.98;53.40;100483.69;5112486;27;69941;-31
2021/08/04 08:57:14;;;;;;;9.85;5.18;;;;;;;33.12;53.40;100498.66;5113809;27;65546;-32
2021/08/04 08:59:48;;;;;;;8.30;4.70;;;;;;;32.84;53.13;100440.53;5111268;27;70139;-32
2021/08/04 09:02:18;;;;;;;17.83;5.47;;;;;;;33.32;53.24;100506.31;5108872;27;65984;-34
2021/08/04 09:05:01;;;;;;;11.80;4.68;;;;;;;33.33;53.35;100514.25;5107093;27;69877;-32
2021/08/04 09:07:32;;;;;;;;;;;;;;;33.02;54.37;100480.28;5108720;27;66032;-30
2021/08/04 09:10:30;;;;;;;12.60;6.47;;;;;;;33.44;54.78;100509.81;5113049;27;70006;-31
2021/08/04 09:13:04;;;;;;;8.60;6.93;;;;;;;33.29;56.18;100475.06;5103950;27;66530;-31
2021/08/04 09:15:42;;;;;;;12.52;7.22;;;;;;;33.51;56.42;100521.34;5110508;27;70155;-32
2021/08/04 09:18:19;;;;;;;15.65;7.80;;;;;;;33.47;56.67;100519.38;5105497;27;65910;-32
2021/08/04 09:20:59;;;;;;;9.65;7.28;;;;;;;33.47;57.29;100516.66;5111771;27;69848;-34
2021/08/04 09:24:02;;;;;;;19.02;7.38;;;;;;;33.46;57.68;100512.28;5088364;27;65994;-33
2021/08/04 09:26:39;;;;;;;12.15;7.63;;;;;;;33.37;58.25;100493.66;5112230;27;69526;-32
2021/08/04 09:29:11;;;;;;;13.20;7.05;;;;;;;33.47;57.91;100509.31;5109440;27;66623;-32
2021/08/04 09:31:51;;;;;;;10.27;8.18;;;;;;;33.44;58.17;100507.09;5089941;27;70124;-34
2021/08/04 09:34:36;;;;;;;13.80;8.50;;;;;;;33.42;58.27;100522.00;5105325;27;65758;-33
2021/08/04 09:37:14;;;;;;;17.17;8.00;;;;;;;33.51;58.22;100521.34;5108566;27;70149;-32
2021/08/04 09:39:57;;;;;;;19.60;7.82;;;;;;;33.52;57.91;100519.47;5088292;27;65273;-32
2021/08/04 09:42:46;;;;;;;8.88;7.72;;;;;;;33.47;58.55;100527.53;5108669;27;70050;-32
2021/08/04 09:45:43;;;;;;;10.40;7.60;;;;;;;33.48;58.46;100542.78;5110217;27;65966;-33
2021/08/04 09:48:16;;;;;;;10.73;7.53;;;;;;;33.54;58.02;100547.25;5091109;27;70134;-34
2021/08/04 09:50:58;;;;;;;7.90;7.22;;;;;;;33.50;58.45;100538.72;5091743;27;65052;-32
2021/08/04 09:53:32;;;;;;;;;;;;;;;33.27;59.35;100553.31;5113723;27;70100;-33
2021/08/04 09:56:06;;;;;;;10.25;6.65;;;;;;;33.59;58.04;100550.88;5107114;27;66925;-32
2021/08/04 09:58:38;;;;;;;12.55;8.20;;;;;;;33.64;57.63;100554.75;5113669;27;69236;-33
2021/08/04 10:01:11;;;;;;;12.73;8.27;;;;;;;33.68;58.02;100561.34;5112125;27;66336;-35
2021/08/04 10:04:11;;;;;;;7.60;6.85;;;;;;;33.63;58.27;100570.25;5114259;27;70378;-33
2021/08/04 10:06:47;;;;;;;9.27;8.35;;;;;;;33.78;58.24;100570.50;5098302;27;66354;-32
2021/08/04 10:09:18;;;;;;;12.13;8.80;;;;;;;33.51;58.83;100543.09;5108932;27;69539;-31
2021/08/04 10:11:50;;;;;;;11.73;8.18;;;;;;;33.48;58.44;100553.66;5116297;27;65503;-31
2021/08/04 10:14:21;;;;;;;;;;;;;;;33.35;59.51;100582.00;5118449;27;70105;-31
2021/08/04 10:16:52;;;;;;;9.93;9.03;;;;;;;33.41;58.36;100539.41;5117893;27;65980;-32
2021/08/04 10:19:26;;;;;;;11.60;9.77;;;;;;;33.57;58.52;100566.63;5118582;27;69325;-32
2021/08/04 10:21:56;;;;;;;9.90;8.90;;;;;;;33.56;58.84;100558.72;5113103;27;65743;-31
2021/08/04 10:24:26;;;;;;;15.68;10.60;;;;;;;33.49;58.25;100552.56;5118842;27;69581;-32
2021/08/04 10:26:58;;;;;;;15.68;10.07;;;;;;;33.49;58.97;100550.69;5114362;27;66797;-32
2021/08/04 10:29:30;;;;;;;20.73;14.43;;;;;;;33.43;58.54;100534.53;5117586;27;69789;-32
2021/08/04 10:32:00;;;;;;;25.70;14.27;;;;;;;33.36;58.58;100551.00;5119256;27;66180;-32
2021/08/04 10:34:31;;;;;;;27.40;16.20;;;;;;;33.28;57.24;100544.06;5100468;27;70271;-32
2021/08/04 10:37:01;;;;;;;20.02;16.10;;;;;;;33.25;56.37;100550.00;5113636;27;68126;-34
2021/08/04 10:39:32;;;;;;;26.48;18.95;;;;;;;33.19;55.87;100566.47;5115908;27;69207;-32
2021/08/04 10:42:07;;;;;;;24.92;20.02;;;;;;;33.07;55.61;100552.91;5115960;27;66813;-31
2021/08/04 10:44:39;;;;;;;27.50;19.17;;;;;;;33.06;56.04;100570.28;5115494;27;69880;-31
2021/08/04 10:47:27;;;;;;;26.88;18.88;;;;;;;33.00;56.23;100565.84;5114026;27;67253;-31
2021/08/04 10:50:12;;;;;;;27.40;18.25;;;;;;;32.99;56.28;100573.13;5117551;27;69394;-32
2021/08/04 10:53:03;;;;;;;29.95;18.10;;;;;;;32.72;56.83;100540.25;5112673;27;66278;-32
2021/08/04 10:55:55;;;;;;;26.23;19.45;;;;;;;32.93;57.46;100579.50;5117526;27;70084;-32
2021/08/04 10:58:26;;;;;;;26.98;18.67;;;;;;;32.96;57.20;100584.50;5115289;27;65673;-31
2021/08/04 11:01:22;;;;;;;30.70;19.63;;;;;;;32.89;57.89;100590.03;5114737;27;69823;-35
2021/08/04 11:04:28;;;;;;;28.08;20.85;;;;;;;32.97;57.85;100591.56;5081097;27;65375;-34
2021/08/04 11:07:20;;;;;;;29.65;20.13;;;;;;;32.72;58.21;100559.28;5116399;27;70089;-32
2021/08/04 11:09:58;;;;;;;38.85;22.83;;;;;;;32.71;57.70;100550.31;5116579;27;65368;-33
2021/08/04 11:12:28;;;;;;;40.55;22.08;;;;;;;32.90;58.33;100596.28;5114922;27;69376;-34
2021/08/04 11:15:00;;;;;;;36.22;22.13;;;;;;;32.93;58.40;100596.66;5115530;27;66092;-32
2021/08/04 11:17:52;;;;;;;31.70;19.67;;;;;;;32.86;57.94;100579.66;5112182;27;69489;-32
2021/08/04 11:20:23;;;;;;;26.00;16.40;;;;;;;32.90;56.73;100591.72;5105217;27;66726;-32
2021/08/04 11:22:53;;;;;;;19.00;14.65;;;;;;;32.90;56.01;100594.44;5115056;27;69266;-34
2021/08/04 11:25:26;;;;;;;33.28;14.38;;;;;;;32.91;55.06;100596.06;5117190;27;65115;-37
2021/08/04 11:27:59;;;;;;;22.70;12.43;;;;;;;32.89;53.92;100597.38;5110800;27;70588;-33
2021/08/04 11:30:34;;;;;;;18.60;10.80;;;;;;;32.84;52.39;100595.38;5115488;27;65282;-32
2021/08/04 11:33:21;;;;;;;25.02;10.70;;;;;;;32.68;51.66;100604.25;5100806;27;70157;-39
2021/08/04 11:36:26;;;;;;;21.33;9.98;;;;;;;32.69;51.49;100601.31;5105459;27;66393;-39
2021/08/04 11:39:01;;;;;;;12.63;10.32;;;;;;;32.64;52.94;100608.53;5111496;27;68909;-32
2021/08/04 11:41:41;;;;;;;15.23;9.93;;;;;;;32.57;50.88;100613.25;5113555;27;66402;-32
2021/08/04 11:44:27;;;;;;;15.38;8.70;;;;;;;32.51;51.32;100603.34;5081010;27;69097;-34
2021/08/04 11:47:10;;;;;;;12.93;7.63;;;;;;;32.46;50.00;100621.19;5116826;27;66590;-32
2021/08/04 11:49:51;;;;;;;15.55;7.93;;;;;;;32.34;49.48;100608.66;5112499;27;70167;-33
2021/08/04 11:52:28;;;;;;;13.18;8.32;;;;;;;32.40;50.73;100630.25;5120854;27;66101;-33
2021/08/04 11:55:05;;;;;;;21.30;9.82;;;;;;;32.40;51.37;100629.41;5109228;27;70420;-36
2021/08/04 11:57:42;;;;;;;17.45;8.48;;;;;;;32.30;50.39;100621.88;5115067;27;66437;-33
2021/08/04 12:00:17;;;;;;;19.73;8.23;;;;;;;32.36;50.12;100639.09;5117076;27;70070;-33
2021/08/04 12:02:48;;;;;;;10.65;7.45;;;;;;;32.31;49.93;100642.50;5112434;27;65574;-32